Terminal Aerodrome Forecast
Issued by NWS

Home | Current Version | Previous Version | Text Only | Print | Product List | Glossary Off
Versions: 1 2 3 4 5 6 7 8 9 10 11 12 13 14 15 16

971
FTUS43 KTOP 222327
TAFMHK
TAF
KMHK 222327Z 2300/2324 17013G21KT P6SM SKC
     FM230200 17011KT P6SM FEW250
     FM231700 18014G22KT P6SM SCT080=

USA.gov is the U.S. government's official web portal to all federal, state and local government web resources and services.